Time;durP1;ratioP1;P1;durP2;ratioP2;P2;SDS_P1;SDS_P2;PMS_P1;PMS_P2;Temp;Humidity;BMP_temperature;BMP_pressure;BME280_temperature;BME280_humidity;BME280_pressure;Samples;Min_cycle;Max_cycle;Signal;HPM_P1;HPM_P2
2021/05/03 00:04:33;;;;;;;10.45;5.43;;;;;;;7.13;77.70;100821.72;21077957;28;20161;-72
2021/05/03 00:14:35;;;;;;;9.55;5.68;;;;;;;7.18;78.79;100821.56;21077487;28;20094;-72
2021/05/03 00:24:36;;;;;;;12.07;7.60;;;;;;;7.22;78.54;100828.38;21076905;28;20052;-72
2021/05/03 00:34:37;;;;;;;11.52;6.68;;;;;;;6.99;79.45;100823.94;21057689;28;20117;-72
2021/05/03 00:44:39;;;;;;;14.68;7.05;;;;;;;6.88;76.86;100826.03;21054640;28;20044;-73
2021/05/03 00:54:41;;;;;;;11.88;6.60;;;;;;;6.80;75.63;100834.09;21056617;28;20050;-72
2021/05/03 01:04:42;;;;;;;13.55;7.65;;;;;;;6.66;74.37;100838.00;21073414;28;20086;-71
2021/05/03 01:14:44;;;;;;;13.60;7.10;;;;;;;6.56;74.74;100842.66;21072851;28;20047;-72
2021/05/03 01:24:45;;;;;;;13.90;8.02;;;;;;;6.47;76.12;100842.94;21063378;22;20048;-70
2021/05/03 01:34:46;;;;;;;17.00;9.68;;;;;;;6.40;75.40;100841.41;21069427;28;20085;-70
2021/05/03 01:44:56;;;;;;;13.77;8.98;;;;;;;6.25;77.29;100844.47;21050332;28;20052;-70
2021/05/03 01:54:58;;;;;;;17.88;10.15;;;;;;;6.17;78.77;100836.03;21052359;28;20052;-71
2021/05/03 02:04:59;;;;;;;18.27;10.60;;;;;;;6.15;79.60;100832.63;20982630;28;20079;-71
2021/05/03 02:15:01;;;;;;;17.00;10.80;;;;;;;6.08;80.67;100841.50;20952360;28;20057;-70
2021/05/03 02:25:03;;;;;;;18.10;11.30;;;;;;;5.92;83.26;100841.94;20983717;28;20119;-70
2021/05/03 02:35:08;;;;;;;19.30;12.57;;;;;;;5.70;84.86;100837.34;20981814;28;20107;-70
2021/05/03 02:45:09;;;;;;;21.13;13.33;;;;;;;5.46;87.29;100841.47;20929834;28;20045;-70
2021/05/03 02:55:11;;;;;;;22.92;13.50;;;;;;;5.27;88.41;100853.22;20899736;28;20492;-69
2021/05/03 03:05:13;;;;;;;21.63;13.07;;;;;;;5.13;88.98;100863.91;20899987;28;20490;-69
2021/05/03 03:15:18;;;;;;;19.73;11.80;;;;;;;4.83;88.33;100873.28;20891392;28;20510;-70
2021/05/03 03:25:19;;;;;;;22.85;12.70;;;;;;;4.69;88.01;100880.53;20896545;28;20056;-70
2021/05/03 03:35:21;;;;;;;19.83;11.88;;;;;;;4.52;87.66;100890.44;20912111;28;20096;-70
2021/05/03 03:45:23;;;;;;;20.58;12.10;;;;;;;4.44;87.85;100903.53;20898347;28;20171;-70
2021/05/03 03:55:26;;;;;;;20.00;11.73;;;;;;;4.50;87.75;100892.19;20912296;28;20115;-70
2021/05/03 04:26:03;;;;;;;19.77;11.68;;;;;;;4.51;87.59;100917.22;20908705;28;20377;-69
2021/05/03 04:36:06;;;;;;;22.50;13.88;;;;;;;4.53;88.13;100915.44;20909519;28;20044;-69
2021/05/03 04:46:08;;;;;;;24.02;14.13;;;;;;;4.58;88.46;100931.75;20914985;28;20045;-69
2021/05/03 04:56:09;;;;;;;24.15;14.15;;;;;;;4.45;90.36;100932.91;20889479;28;20420;-70
2021/05/03 05:06:11;;;;;;;23.75;14.00;;;;;;;4.47;90.45;100946.69;20887068;28;20095;-69
2021/05/03 05:16:12;;;;;;;23.42;14.07;;;;;;;4.67;88.52;100952.31;20904244;28;20049;-69
2021/05/03 05:26:14;;;;;;;25.60;14.85;;;;;;;4.77;88.76;100955.56;20905015;28;20423;-69
2021/05/03 05:36:15;;;;;;;23.88;14.48;;;;;;;5.26;85.59;100955.31;20903446;28;20408;-69
2021/05/03 05:46:18;;;;;;;21.33;12.77;;;;;;;5.61;83.03;100960.50;20911518;28;20393;-70
2021/05/03 05:56:20;;;;;;;19.48;12.00;;;;;;;6.45;78.92;100961.72;20903048;28;20128;-70
2021/05/03 06:06:21;;;;;;;18.27;11.73;;;;;;;7.03;75.13;100971.28;20901637;28;20092;-69
2021/05/03 06:16:22;;;;;;;18.08;10.52;;;;;;;6.91;74.38;100986.44;20901560;28;20555;-69
2021/05/03 06:26:24;;;;;;;15.15;10.40;;;;;;;6.95;74.85;100980.22;20901135;28;20550;-69
2021/05/03 06:36:28;;;;;;;15.00;9.80;;;;;;;7.03;73.71;100986.03;20904185;28;20049;-70
2021/05/03 06:46:29;;;;;;;15.00;10.32;;;;;;;7.17;72.76;100983.88;20901138;28;20041;-69
2021/05/03 06:56:31;;;;;;;13.82;9.45;;;;;;;7.44;71.08;100989.97;20918622;28;20049;-70
2021/05/03 07:06:32;;;;;;;14.70;9.38;;;;;;;7.91;69.62;100993.63;20928357;28;20396;-69
2021/05/03 07:16:34;;;;;;;12.32;7.38;;;;;;;8.23;66.05;101011.59;20918575;28;20045;-70
2021/05/03 07:26:37;;;;;;;12.88;7.47;;;;;;;8.72;64.65;101015.13;20914517;28;20049;-69
2021/05/03 07:36:38;;;;;;;9.85;6.35;;;;;;;8.95;61.04;100997.69;20914611;28;20519;-71
2021/05/03 07:46:39;;;;;;;10.80;6.05;;;;;;;9.29;61.01;100994.63;20914333;28;20049;-69
2021/05/03 07:56:43;;;;;;;11.55;6.55;;;;;;;9.74;57.07;100988.47;20912699;28;20048;-68
2021/05/03 08:06:45;;;;;;;12.52;6.20;;;;;;;10.11;56.32;100987.75;20921681;28;20103;-68
2021/05/03 08:16:50;;;;;;;11.20;6.75;;;;;;;10.46;55.65;100976.66;20926089;28;20103;-68
2021/05/03 08:26:52;;;;;;;9.50;6.18;;;;;;;10.93;53.99;100971.84;20928985;28;20045;-69
2021/05/03 08:36:56;;;;;;;10.10;6.43;;;;;;;10.76;51.85;100977.03;20911868;28;20104;-69
2021/05/03 08:46:58;;;;;;;10.38;7.00;;;;;;;11.46;48.79;100977.19;20918319;28;20045;-69
2021/05/03 08:57:00;;;;;;;11.50;6.95;;;;;;;11.19;48.67;100959.28;20930103;28;20076;-68
2021/05/03 09:07:04;;;;;;;10.75;6.60;;;;;;;11.66;49.15;100954.38;20911065;28;20036;-68
2021/05/03 09:17:05;;;;;;;14.25;6.63;;;;;;;11.35;46.74;100948.00;20929512;28;20048;-68
2021/05/03 09:27:07;;;;;;;11.68;7.38;;;;;;;11.07;48.20;100945.84;20968464;22;20118;-73
2021/05/03 09:37:31;;;;;;;11.52;7.55;;;;;;;11.35;47.31;100936.66;20994968;28;20047;-73
2021/05/03 09:47:33;;;;;;;10.77;7.00;;;;;;;12.00;44.96;100925.53;20980974;28;20044;-74
2021/05/03 09:57:35;;;;;;;10.88;6.97;;;;;;;13.23;42.39;100917.06;20975152;28;20048;-73
2021/05/03 10:07:39;;;;;;;10.02;5.75;;;;;;;13.44;41.80;100900.97;20964426;28;20051;-73
2021/05/03 10:17:41;;;;;;;7.50;4.53;;;;;;;13.45;38.83;100886.91;20982481;28;20052;-73
2021/05/03 10:27:46;;;;;;;6.30;3.80;;;;;;;13.15;38.89;100897.41;20984446;28;20051;-73
2021/05/03 10:37:49;;;;;;;7.20;3.73;;;;;;;13.04;40.14;100886.63;20985721;28;20048;-73
2021/05/03 10:47:55;;;;;;;8.88;5.00;;;;;;;13.56;38.89;100880.06;20981461;28;20048;-73
2021/05/03 10:57:59;;;;;;;7.00;3.70;;;;;;;13.43;38.65;100862.47;20980673;28;20044;-73
2021/05/03 11:08:04;;;;;;;6.90;3.70;;;;;;;13.59;39.52;100845.69;20981475;28;20411;-73
2021/05/03 11:18:27;;;;;;;8.00;4.47;;;;;;;13.28;39.69;100832.66;20979565;28;20127;-73
2021/05/03 11:28:37;;;;;;;7.50;3.17;;;;;;;13.75;38.36;100821.09;20977561;28;20044;-73
2021/05/03 11:38:48;;;;;;;6.53;3.80;;;;;;;13.60;38.13;100801.81;20981687;28;20040;-75
2021/05/03 11:48:49;;;;;;;4.70;2.83;;;;;;;14.71;35.84;100797.47;21077392;28;20039;-74
2021/05/03 11:58:53;;;;;;;6.95;2.85;;;;;;;14.97;35.67;100788.72;21076008;28;20119;-74
2021/05/03 12:09:03;;;;;;;5.40;2.60;;;;;;;14.59;35.58;100778.03;21058159;28;20036;-74
2021/05/03 12:19:15;;;;;;;8.52;3.45;;;;;;;14.04;36.32;100770.16;21072512;28;20044;-74
2021/05/03 12:29:17;;;;;;;5.15;2.63;;;;;;;14.77;35.81;100760.19;21071293;28;20458;-74
2021/05/03 12:39:18;;;;;;;5.85;2.42;;;;;;;14.58;35.18;100738.63;21075435;28;20052;-74
2021/05/03 12:49:25;;;;;;;4.32;2.05;;;;;;;14.31;36.09;100728.91;21053984;28;20044;-73
2021/05/03 13:30:40;;;;;;;4.68;2.60;;;;;;;14.96;36.15;100668.41;21050960;28;20454;-72
2021/05/03 13:40:41;;;;;;;7.18;2.85;;;;;;;15.71;35.92;100649.06;21055465;28;20453;-74
2021/05/03 13:50:43;;;;;;;4.88;3.00;;;;;;;15.46;37.11;100621.84;21029674;28;20048;-74
2021/05/03 14:00:44;;;;;;;6.38;3.13;;;;;;;15.60;35.63;100609.38;21043765;28;20052;-74
2021/05/03 14:10:45;;;;;;;4.70;2.45;;;;;;;15.57;35.26;100598.22;21043612;28;20680;-74
2021/05/03 14:20:48;;;;;;;6.22;3.08;;;;;;;15.51;36.50;100588.06;21048015;28;20477;-74
2021/05/03 14:30:56;;;;;;;6.85;3.63;;;;;;;15.59;36.01;100570.78;21040522;28;20044;-74
2021/05/03 14:40:57;;;;;;;6.72;3.95;;;;;;;15.26;37.14;100563.44;21067072;28;20140;-75
2021/05/03 15:01:41;;;;;;;5.82;3.28;;;;;;;15.65;34.31;100527.25;20857348;28;20564;-73
2021/05/03 15:11:45;;;;;;;8.45;3.63;;;;;;;16.09;34.37;100503.69;21071131;28;20044;-73
2021/05/03 15:21:46;;;;;;;5.63;3.22;;;;;;;16.70;34.22;100496.38;21077253;28;20052;-73
2021/05/03 15:41:50;;;;;;;7.82;3.60;;;;;;;16.13;34.45;100491.09;21077630;28;20048;-73
2021/05/03 15:51:51;;;;;;;5.88;3.20;;;;;;;16.25;34.71;100474.31;21060650;28;20394;-75
2021/05/03 16:01:53;;;;;;;6.85;2.70;;;;;;;16.04;32.69;100462.75;21050406;28;20109;-74
2021/05/03 16:11:55;;;;;;;7.28;2.75;;;;;;;15.84;33.76;100451.06;21054767;28;20450;-74
2021/05/03 16:21:56;;;;;;;6.65;4.10;;;;;;;16.16;35.78;100443.31;21070624;28;20098;-75
2021/05/03 16:31:57;;;;;;;7.70;4.38;;;;;;;16.26;36.16;100421.34;21069270;28;20503;-75
2021/05/03 16:41:59;;;;;;;5.20;3.08;;;;;;;16.55;33.99;100405.06;21070141;28;20062;-76
2021/05/03 16:52:00;;;;;;;5.70;2.78;;;;;;;16.31;33.18;100388.44;21067886;28;20094;-74
2021/05/03 17:02:02;;;;;;;5.25;2.83;;;;;;;15.97;33.41;100375.22;21070123;28;20109;-75
2021/05/03 17:12:03;;;;;;;3.95;2.25;;;;;;;15.45;33.26;100370.41;21069898;28;20052;-75
2021/05/03 17:22:06;;;;;;;7.28;3.88;;;;;;;15.67;35.66;100354.66;21073143;28;20097;-75
2021/05/03 17:32:07;;;;;;;7.85;3.63;;;;;;;15.34;37.44;100338.69;21024919;22;20445;-70
2021/05/03 17:42:09;;;;;;;7.05;3.78;;;;;;;14.96;37.66;100333.66;20998266;28;20051;-70
2021/05/03 17:52:14;;;;;;;6.68;3.58;;;;;;;14.42;40.83;100331.44;20942878;28;20048;-70
2021/05/03 18:02:15;;;;;;;22.13;11.57;;;;;;;14.10;41.69;100327.53;20984505;28;20040;-70
2021/05/03 18:12:17;;;;;;;7.07;3.95;;;;;;;13.81;41.88;100307.69;20970438;28;20478;-69
2021/05/03 18:22:18;;;;;;;11.25;5.93;;;;;;;13.32;43.93;100303.09;20980436;28;20056;-69
2021/05/03 18:32:21;;;;;;;7.60;4.00;;;;;;;13.00;44.11;100292.09;21001318;28;20515;-69
2021/05/03 18:42:22;;;;;;;8.50;4.82;;;;;;;12.55;45.74;100280.16;20974609;28;20090;-69
2021/05/03 18:52:23;;;;;;;7.47;4.40;;;;;;;12.17;48.70;100277.34;20995219;28;20045;-70
2021/05/03 19:02:25;;;;;;;8.13;4.53;;;;;;;11.85;50.42;100263.59;20984423;28;20045;-71
2021/05/03 19:12:26;;;;;;;8.30;3.78;;;;;;;11.62;51.76;100268.53;20991941;28;20215;-70
2021/05/03 19:22:28;;;;;;;7.90;3.28;;;;;;;11.22;53.03;100256.97;20996310;28;20490;-70
2021/05/03 19:32:36;;;;;;;5.95;3.53;;;;;;;10.84;54.35;100246.94;21018743;28;20040;-70
2021/05/03 19:42:36;;;;;;;5.95;3.45;;;;;;;10.50;57.80;100231.50;21036526;28;20655;-69
2021/05/03 20:13:18;;;;;;;12.10;6.70;;;;;;;9.76;62.23;100198.06;21031769;28;20322;-69
2021/05/03 20:23:19;;;;;;;12.20;7.45;;;;;;;9.54;62.72;100186.25;21034874;28;20056;-70
2021/05/03 20:33:29;;;;;;;19.50;11.43;;;;;;;9.26;63.80;100179.84;20989977;28;20459;-70
2021/05/03 20:43:32;;;;;;;24.20;12.48;;;;;;;9.08;64.28;100172.97;20983720;28;20049;-69
2021/05/03 20:53:33;;;;;;;14.02;7.80;;;;;;;8.90;65.16;100163.47;20975118;28;20443;-70
2021/05/03 21:03:34;;;;;;;12.85;7.60;;;;;;;8.65;64.85;100160.41;20999798;28;20048;-71
2021/05/03 21:13:36;;;;;;;11.98;6.88;;;;;;;8.49;65.96;100148.13;20991261;28;20131;-71
2021/05/03 21:23:37;;;;;;;11.23;6.68;;;;;;;8.37;67.81;100146.16;20993158;28;20052;-72
2021/05/03 21:33:41;;;;;;;11.63;6.97;;;;;;;8.15;68.23;100128.06;20992417;28;20044;-71
2021/05/03 21:43:42;;;;;;;8.70;5.82;;;;;;;8.01;68.58;100119.22;20970231;28;20044;-71
2021/05/03 21:53:44;;;;;;;12.27;6.40;;;;;;;7.90;70.60;100116.28;20988225;28;20044;-72
2021/05/03 22:03:45;;;;;;;13.85;8.50;;;;;;;7.72;70.04;100111.03;20971547;28;20048;-71
2021/05/03 22:14:07;;;;;;;11.55;7.90;;;;;;;7.61;70.28;100089.03;20975209;28;20496;-71
2021/05/03 22:34:18;;;;;;;14.95;9.10;;;;;;;7.42;71.60;100073.38;20982510;28;20097;-71
2021/05/03 23:15:27;;;;;;;7.60;5.05;;;;;;;7.27;72.39;99986.44;20983153;28;20060;-70
2021/05/03 23:25:28;;;;;;;8.32;5.05;;;;;;;7.24;72.55;99950.16;20998290;22;20052;-76
2021/05/03 23:35:29;;;;;;;7.40;4.70;;;;;;;7.22;72.04;99935.50;21003193;28;20098;-73
2021/05/03 23:45:31;;;;;;;9.82;5.18;;;;;;;7.02;72.73;99927.81;21080296;28;20043;-73
2021/05/03 23:55:32;;;;;;;8.77;5.13;;;;;;;6.65;74.79;99905.28;21081247;28;20051;-74
